createdAt,value
2019-01-09T00:00:14.960Z,3.70
2019-01-09T00:02:16.835Z,3.70
2019-01-09T00:04:18.499Z,3.70
2019-01-09T00:06:20.246Z,3.60
2019-01-09T00:08:22.141Z,3.60
2019-01-09T00:10:23.780Z,3.60
2019-01-09T00:12:25.420Z,3.60
2019-01-09T00:14:27.063Z,3.60
2019-01-09T00:16:28.707Z,3.60
2019-01-09T00:18:30.360Z,3.50
2019-01-09T00:20:32.356Z,3.50
2019-01-09T00:22:33.996Z,3.50
2019-01-09T00:24:35.644Z,3.50
2019-01-09T00:26:37.288Z,3.50
2019-01-09T00:28:39.172Z,3.50
2019-01-09T00:30:40.813Z,3.40
2019-01-09T00:32:42.920Z,3.50
2019-01-09T00:34:44.572Z,3.40
2019-01-09T00:36:46.213Z,3.50
2019-01-09T00:38:47.862Z,3.40
2019-01-09T00:40:49.593Z,3.40
2019-01-09T00:42:51.232Z,3.40
2019-01-09T00:44:52.886Z,3.40
2019-01-09T00:46:54.524Z,3.40
2019-01-09T00:48:56.180Z,3.30
2019-01-09T00:50:58.055Z,3.30
2019-01-09T00:52:59.712Z,3.30
2019-01-09T00:55:01.361Z,3.30
2019-01-09T00:57:03.016Z,3.30
2019-01-09T00:59:04.652Z,3.30
2019-01-09T01:01:06.626Z,3.30
2019-01-09T01:03:48.534Z,3.30
2019-01-09T01:06:28.366Z,3.30
2019-01-09T01:08:53.311Z,3.30
2019-01-09T01:11:16.125Z,3.30
2019-01-09T01:13:56.574Z,3.30
2019-01-09T01:16:40.521Z,3.30
2019-01-09T01:19:15.127Z,3.30
2019-01-09T01:21:39.703Z,3.30
2019-01-09T01:24:13.319Z,3.30
2019-01-09T01:26:41.769Z,3.40
2019-01-09T01:29:17.864Z,3.40
2019-01-09T01:31:42.371Z,3.40
2019-01-09T01:33:56.812Z,3.40
2019-01-09T01:36:23.356Z,3.40
2019-01-09T01:38:41.747Z,3.40
2019-01-09T01:41:02.709Z,3.30
2019-01-09T01:43:24.978Z,3.40
2019-01-09T01:45:52.431Z,3.30
2019-01-09T01:48:37.400Z,3.30
2019-01-09T01:51:33.399Z,3.30
2019-01-09T01:54:13.851Z,3.30
2019-01-09T01:56:42.436Z,3.40
2019-01-09T01:59:03.915Z,3.30
2019-01-09T02:01:34.219Z,3.30
2019-01-09T02:04:42.076Z,3.30
2019-01-09T02:07:10.864Z,3.30
2019-01-09T02:09:44.623Z,3.30
2019-01-09T02:12:06.359Z,3.30
2019-01-09T02:14:41.151Z,3.30
2019-01-09T02:17:24.579Z,3.30
2019-01-09T02:19:37.835Z,3.30
2019-01-09T02:21:50.004Z,3.30
2019-01-09T02:24:20.940Z,3.30
2019-01-09T02:26:37.108Z,3.30
2019-01-09T02:28:50.399Z,3.30
2019-01-09T02:31:14.060Z,3.30
2019-01-09T02:33:15.939Z,3.40
2019-01-09T02:35:17.575Z,3.40
2019-01-09T02:37:19.236Z,3.40
2019-01-09T02:39:21.135Z,3.50
2019-01-09T02:41:22.784Z,3.50
2019-01-09T02:43:24.426Z,3.50
2019-01-09T02:45:26.060Z,3.50
2019-01-09T02:47:27.708Z,3.50
2019-01-09T02:49:29.340Z,3.50
2019-01-09T02:51:30.989Z,3.50
2019-01-09T02:53:32.640Z,3.50
2019-01-09T02:55:34.285Z,3.50
2019-01-09T02:57:35.947Z,3.50
2019-01-09T02:59:37.575Z,3.50
2019-01-09T03:01:39.461Z,3.50
2019-01-09T03:03:41.083Z,3.50
2019-01-09T03:05:42.724Z,3.50
2019-01-09T03:07:44.371Z,3.50
2019-01-09T03:09:46.012Z,3.40
2019-01-09T03:11:47.662Z,3.50
2019-01-09T03:13:49.631Z,3.40
2019-01-09T03:15:51.745Z,3.40
2019-01-09T03:17:53.879Z,3.40
2019-01-09T03:19:55.522Z,3.40
2019-01-09T03:21:57.403Z,3.40
2019-01-09T03:23:59.053Z,3.40
2019-01-09T03:26:00.927Z,3.40
2019-01-09T03:28:02.567Z,3.40
2019-01-09T03:30:04.627Z,3.40
2019-01-09T03:32:06.272Z,3.40
2019-01-09T03:34:08.144Z,3.30
2019-01-09T03:36:10.002Z,3.30
2019-01-09T03:38:11.688Z,3.30
2019-01-09T03:40:13.335Z,3.30
2019-01-09T03:42:14.980Z,3.30
2019-01-09T03:44:16.847Z,3.30
2019-01-09T03:46:18.539Z,3.30
2019-01-09T03:48:20.231Z,3.30
2019-01-09T03:50:21.972Z,3.20
2019-01-09T03:52:23.629Z,3.20
2019-01-09T03:54:25.500Z,3.20
2019-01-09T03:56:27.137Z,3.20
2019-01-09T03:58:28.783Z,3.20
2019-01-09T04:00:30.451Z,3.20
2019-01-09T04:02:32.087Z,3.20
2019-01-09T04:04:34.220Z,3.20
2019-01-09T04:06:41.790Z,3.10
2019-01-09T04:08:39.641Z,3.10
2019-01-09T04:10:41.289Z,3.10
2019-01-09T04:12:43.176Z,3.10
2019-01-09T04:14:44.815Z,3.10
2019-01-09T04:16:46.691Z,3.10
2019-01-09T04:18:48.335Z,3.00
2019-01-09T04:20:50.212Z,3.00
2019-01-09T04:22:51.896Z,3.00
2019-01-09T04:24:53.540Z,3.00
2019-01-09T04:26:55.168Z,2.90
2019-01-09T04:28:56.819Z,2.90
2019-01-09T04:30:58.456Z,2.90
2019-01-09T04:33:00.100Z,2.90
2019-01-09T04:35:01.747Z,2.90
2019-01-09T04:37:03.383Z,2.90
2019-01-09T04:39:05.432Z,2.90
2019-01-09T04:41:07.298Z,2.90
2019-01-09T04:43:08.944Z,2.90
2019-01-09T04:45:10.584Z,2.90
2019-01-09T04:47:12.226Z,2.90
2019-01-09T04:49:13.877Z,3.00
2019-01-09T04:51:15.514Z,3.00
2019-01-09T04:53:17.408Z,3.00
2019-01-09T04:55:19.642Z,3.00
2019-01-09T04:57:21.351Z,3.00
2019-01-09T04:59:23.004Z,3.00
2019-01-09T05:01:24.646Z,3.00
2019-01-09T05:03:26.289Z,3.00
2019-01-09T05:05:27.937Z,3.00
2019-01-09T05:07:30.055Z,3.00
2019-01-09T05:09:32.183Z,3.00
2019-01-09T05:11:33.823Z,3.00
2019-01-09T05:13:35.700Z,2.90
2019-01-09T05:15:37.350Z,2.90
2019-01-09T05:17:38.988Z,2.90
2019-01-09T05:19:40.867Z,2.80
2019-01-09T05:21:42.977Z,2.90
2019-01-09T05:23:44.860Z,2.90
2019-01-09T05:25:46.743Z,2.90
2019-01-09T05:27:48.389Z,2.90
2019-01-09T05:29:50.027Z,2.90
2019-01-09T05:31:51.668Z,2.90
2019-01-09T05:33:53.311Z,2.90
2019-01-09T05:35:55.236Z,2.90
2019-01-09T05:37:56.874Z,2.90
2019-01-09T05:39:58.525Z,2.90
2019-01-09T05:42:00.400Z,2.80
2019-01-09T05:44:02.037Z,2.80
2019-01-09T05:46:03.687Z,2.70
2019-01-09T05:48:05.336Z,2.70
2019-01-09T05:50:06.979Z,2.70
2019-01-09T05:52:08.612Z,2.60
2019-01-09T05:54:10.487Z,2.60
2019-01-09T05:56:12.363Z,2.60
2019-01-09T05:58:14.231Z,2.60
2019-01-09T06:00:16.112Z,2.50
2019-01-09T06:02:18.000Z,2.50
2019-01-09T06:04:19.876Z,2.50
2019-01-09T06:06:21.528Z,2.50
2019-01-09T06:08:23.172Z,2.50
2019-01-09T06:10:25.287Z,2.40
2019-01-09T06:12:26.924Z,2.40
2019-01-09T06:14:28.605Z,2.40
2019-01-09T06:16:30.325Z,2.40
2019-01-09T06:18:32.184Z,2.40
2019-01-09T06:20:33.834Z,2.50
2019-01-09T06:22:35.940Z,2.50
2019-01-09T06:24:37.630Z,2.50
2019-01-09T06:26:39.321Z,2.50
2019-01-09T06:28:40.960Z,2.50
2019-01-09T06:30:42.841Z,2.50
2019-01-09T06:32:44.477Z,2.50
2019-01-09T06:34:46.116Z,2.50
2019-01-09T06:36:47.956Z,2.50
2019-01-09T06:38:49.832Z,2.60
2019-01-09T06:40:51.716Z,2.60
2019-01-09T06:42:53.353Z,2.50
2019-01-09T06:44:54.996Z,2.60
2019-01-09T06:46:56.647Z,2.50
2019-01-09T06:48:58.287Z,2.50
2019-01-09T06:51:00.183Z,2.50
2019-01-09T06:53:01.905Z,2.50
2019-01-09T06:55:03.567Z,2.50
2019-01-09T06:57:05.438Z,2.50
2019-01-09T06:59:07.075Z,2.50
2019-01-09T07:01:09.063Z,2.40
2019-01-09T07:03:10.947Z,2.40
2019-01-09T07:05:12.684Z,2.40
2019-01-09T07:07:14.336Z,2.40
2019-01-09T07:09:15.963Z,2.40
2019-01-09T07:11:17.611Z,2.40
2019-01-09T07:13:19.537Z,2.40
2019-01-09T07:15:21.231Z,2.40
2019-01-09T07:17:22.876Z,2.50
2019-01-09T07:19:24.511Z,2.50
2019-01-09T07:21:26.163Z,2.50
2019-01-09T07:23:28.047Z,2.50
2019-01-09T07:25:29.927Z,2.50
2019-01-09T07:27:31.808Z,2.50
2019-01-09T07:29:33.448Z,2.50
2019-01-09T07:31:35.092Z,2.50
2019-01-09T07:33:36.965Z,2.50
2019-01-09T07:35:38.599Z,2.60
2019-01-09T07:37:44.940Z,2.50
2019-01-09T07:39:43.783Z,2.60
2019-01-09T07:41:45.431Z,2.50
2019-01-09T07:43:47.071Z,2.60
2019-01-09T07:45:48.935Z,2.60
2019-01-09T07:47:50.822Z,2.60
2019-01-09T07:49:52.459Z,2.60
2019-01-09T07:51:54.103Z,2.60
2019-01-09T07:53:57.467Z,2.60
2019-01-09T07:55:59.296Z,2.60
2019-01-09T07:58:00.927Z,2.60
2019-01-09T08:00:02.612Z,2.60
2019-01-09T08:02:04.492Z,2.60
2019-01-09T08:04:06.368Z,2.60
2019-01-09T08:06:08.008Z,2.60
2019-01-09T08:08:09.879Z,2.60
2019-01-09T08:10:11.771Z,2.60
2019-01-09T08:12:13.420Z,2.60
2019-01-09T08:14:15.059Z,2.70
2019-01-09T08:16:16.935Z,2.70
2019-01-09T08:18:18.820Z,2.70
2019-01-09T08:20:20.700Z,2.70
2019-01-09T08:22:22.347Z,2.70
2019-01-09T08:24:23.985Z,2.70
2019-01-09T08:26:25.627Z,2.70
2019-01-09T08:28:27.508Z,2.70
2019-01-09T08:30:29.143Z,2.70
2019-01-09T08:32:31.027Z,2.70
2019-01-09T08:34:32.699Z,2.70
2019-01-09T08:36:34.333Z,2.80
2019-01-09T08:38:35.980Z,2.80
2019-01-09T08:40:37.620Z,2.80
2019-01-09T08:42:39.366Z,2.80
2019-01-09T08:44:41.240Z,2.80
2019-01-09T08:46:42.872Z,2.80
2019-01-09T08:48:44.524Z,2.80
2019-01-09T08:50:46.155Z,2.80
2019-01-09T08:52:47.819Z,2.80
2019-01-09T08:54:49.928Z,2.80
2019-01-09T08:56:51.563Z,2.80
2019-01-09T08:58:53.211Z,2.80
2019-01-09T09:00:54.851Z,2.80
2019-01-09T09:02:56.497Z,2.80
2019-01-09T09:04:58.130Z,2.80
2019-01-09T09:07:00.000Z,2.80
2019-01-09T09:09:01.916Z,2.90
2019-01-09T09:11:03.559Z,2.90
2019-01-09T09:13:05.272Z,2.90
2019-01-09T09:15:09.176Z,2.90
2019-01-09T09:17:11.064Z,3.00
2019-01-09T09:19:12.715Z,3.00
2019-01-09T09:21:14.352Z,3.00
2019-01-09T09:23:16.004Z,3.00
2019-01-09T09:25:17.737Z,3.00
2019-01-09T09:27:19.368Z,3.00
2019-01-09T09:29:21.503Z,3.00
2019-01-09T09:31:23.146Z,3.10
2019-01-09T09:33:25.032Z,3.10
2019-01-09T09:35:26.663Z,3.10
2019-01-09T09:37:28.308Z,3.10
2019-01-09T09:39:29.955Z,3.20
2019-01-09T09:41:31.844Z,3.20
2019-01-09T09:43:33.483Z,3.20
2019-01-09T09:45:35.123Z,3.20
2019-01-09T09:47:36.764Z,3.30
2019-01-09T09:49:38.416Z,3.30
2019-01-09T09:51:40.052Z,3.20
2019-01-09T09:53:41.712Z,3.20
2019-01-09T09:55:43.352Z,3.20
2019-01-09T09:57:44.984Z,3.30
2019-01-09T09:59:46.871Z,3.20
2019-01-09T10:01:48.539Z,3.20
2019-01-09T10:03:50.415Z,3.20
2019-01-09T10:05:52.156Z,3.30
2019-01-09T10:07:53.799Z,3.30
2019-01-09T10:09:55.448Z,3.30
2019-01-09T10:11:57.080Z,3.20
2019-01-09T10:13:58.952Z,3.30
2019-01-09T10:16:00.632Z,3.30
2019-01-09T10:18:02.275Z,3.30
2019-01-09T10:20:07.072Z,3.40
2019-01-09T10:22:08.703Z,3.30
2019-01-09T10:24:10.583Z,3.30
2019-01-09T10:26:12.220Z,3.40
2019-01-09T10:28:13.861Z,3.30
2019-01-09T10:30:16.411Z,3.30
2019-01-09T10:32:18.052Z,3.30
2019-01-09T10:34:19.709Z,3.30
2019-01-09T10:36:21.587Z,3.30
2019-01-09T10:38:23.220Z,3.30
2019-01-09T10:40:24.869Z,3.30
2019-01-09T10:42:26.499Z,3.30
2019-01-09T10:44:28.139Z,3.30
2019-01-09T10:46:29.788Z,3.30
2019-01-09T10:48:31.423Z,3.30
2019-01-09T10:50:33.077Z,3.30
2019-01-09T10:52:34.767Z,3.30
2019-01-09T10:54:36.442Z,3.30
2019-01-09T10:56:38.072Z,3.30
2019-01-09T10:58:39.711Z,3.30
2019-01-09T11:00:41.392Z,3.30
2019-01-09T11:02:43.024Z,3.30
2019-01-09T11:04:44.692Z,3.30
2019-01-09T11:06:46.574Z,3.30
2019-01-09T11:08:48.196Z,3.30
2019-01-09T11:10:49.839Z,3.30
2019-01-09T11:12:51.484Z,3.30
2019-01-09T11:14:53.343Z,3.30
2019-01-09T11:16:54.996Z,3.30
2019-01-09T11:18:56.893Z,3.30
2019-01-09T11:20:58.540Z,3.20
2019-01-09T11:23:00.193Z,3.20
2019-01-09T11:25:02.031Z,3.20
2019-01-09T11:27:03.711Z,3.30
2019-01-09T11:29:05.353Z,3.20
2019-01-09T11:31:07.003Z,3.20
2019-01-09T11:33:08.643Z,3.20
2019-01-09T11:35:10.920Z,3.20
2019-01-09T11:37:12.803Z,3.20
2019-01-09T11:39:14.447Z,3.20
2019-01-09T11:41:16.100Z,3.20
2019-01-09T11:43:17.822Z,3.20
2019-01-09T11:45:19.699Z,3.20
2019-01-09T11:47:21.348Z,3.20
2019-01-09T11:49:22.992Z,3.30
2019-01-09T11:51:24.635Z,3.30
2019-01-09T11:53:26.283Z,3.30
2019-01-09T11:55:27.920Z,3.30
2019-01-09T11:57:29.811Z,3.30
2019-01-09T11:59:31.683Z,3.30
2019-01-09T12:01:33.332Z,3.30
2019-01-09T12:03:34.968Z,3.30
2019-01-09T12:05:36.612Z,3.30
2019-01-09T12:07:38.262Z,3.30
2019-01-09T12:09:39.912Z,3.30
2019-01-09T12:11:41.548Z,3.30
2019-01-09T12:13:43.183Z,3.20
2019-01-09T12:15:44.843Z,3.20
2019-01-09T12:17:46.480Z,3.20
2019-01-09T12:19:48.120Z,3.20
2019-01-09T12:21:49.772Z,3.20
2019-01-09T12:23:51.415Z,3.20
2019-01-09T12:25:53.087Z,3.20
2019-01-09T12:27:54.727Z,3.20
2019-01-09T12:29:56.398Z,3.20
2019-01-09T12:31:58.113Z,3.30
2019-01-09T12:33:59.752Z,3.20
2019-01-09T12:36:01.400Z,3.30
2019-01-09T12:38:03.036Z,3.20
2019-01-09T12:40:04.988Z,3.20
2019-01-09T12:42:06.631Z,3.20
2019-01-09T12:44:08.268Z,3.20
2019-01-09T12:46:10.084Z,3.20
2019-01-09T12:48:11.724Z,3.20
2019-01-09T12:50:15.948Z,3.20
2019-01-09T12:52:17.831Z,3.20
2019-01-09T12:54:19.484Z,3.20
2019-01-09T12:56:21.148Z,3.20
2019-01-09T12:58:22.791Z,3.10
2019-01-09T13:00:25.968Z,3.10
2019-01-09T13:02:27.615Z,3.10
2019-01-09T13:04:29.492Z,3.10
2019-01-09T13:06:31.138Z,3.10
2019-01-09T13:08:32.783Z,3.10
2019-01-09T13:10:34.421Z,3.10
2019-01-09T13:12:36.068Z,3.10
2019-01-09T13:14:37.699Z,3.10
2019-01-09T13:16:47.451Z,3.10
2019-01-09T13:18:42.885Z,3.10
2019-01-09T13:20:44.523Z,3.10
2019-01-09T13:22:46.183Z,3.10
2019-01-09T13:24:47.823Z,3.10
2019-01-09T13:26:49.709Z,3.10
2019-01-09T13:28:51.591Z,3.10
2019-01-09T13:30:53.232Z,3.20
2019-01-09T13:32:55.176Z,3.10
2019-01-09T13:34:56.879Z,3.20
2019-01-09T13:36:58.519Z,3.20
2019-01-09T13:39:00.169Z,3.10
2019-01-09T13:41:01.932Z,3.10
2019-01-09T13:43:03.572Z,3.10
2019-01-09T13:45:06.909Z,3.10
2019-01-09T13:47:08.608Z,3.10
2019-01-09T13:49:10.299Z,3.10
2019-01-09T13:51:11.937Z,3.10
2019-01-09T13:53:13.604Z,3.10
2019-01-09T13:55:15.279Z,3.10
2019-01-09T13:57:16.924Z,3.10
2019-01-09T13:59:18.568Z,3.10
2019-01-09T14:01:20.212Z,3.10
2019-01-09T14:03:22.095Z,3.10
2019-01-09T14:05:23.743Z,3.10
2019-01-09T14:07:25.384Z,3.10
2019-01-09T14:09:27.031Z,3.10
2019-01-09T14:11:28.671Z,3.10
2019-01-09T14:13:30.316Z,3.00
2019-01-09T14:15:31.952Z,3.00
2019-01-09T14:17:33.593Z,3.00
2019-01-09T14:19:35.239Z,3.00
2019-01-09T14:21:36.887Z,3.00
2019-01-09T14:23:38.540Z,3.00
2019-01-09T14:25:40.174Z,2.90
2019-01-09T14:27:41.832Z,2.90
2019-01-09T14:29:43.804Z,2.90
2019-01-09T14:31:45.444Z,2.90
2019-01-09T14:33:47.079Z,2.90
2019-01-09T14:35:48.711Z,2.90
2019-01-09T14:37:50.567Z,2.90
2019-01-09T14:39:52.231Z,2.90
2019-01-09T14:41:54.185Z,2.90
2019-01-09T14:43:55.839Z,2.90
2019-01-09T14:45:57.748Z,2.80
2019-01-09T14:47:59.684Z,2.80
2019-01-09T14:50:01.668Z,2.80
2019-01-09T14:52:03.308Z,2.80
2019-01-09T14:54:04.971Z,2.70
2019-01-09T14:56:06.613Z,2.70
2019-01-09T14:58:08.467Z,2.70
2019-01-09T15:00:13.632Z,2.70
2019-01-09T15:02:16.047Z,2.70
2019-01-09T15:04:17.856Z,2.70
2019-01-09T15:06:19.500Z,2.70
2019-01-09T15:08:21.215Z,2.60
2019-01-09T15:10:27.640Z,2.70
2019-01-09T15:12:29.511Z,2.70
2019-01-09T15:14:31.168Z,2.70
2019-01-09T15:16:32.800Z,2.70
2019-01-09T15:18:34.435Z,2.70
2019-01-09T15:20:36.102Z,2.70
2019-01-09T15:22:37.860Z,2.70
2019-01-09T15:24:39.508Z,2.70
2019-01-09T15:26:41.144Z,2.70
2019-01-09T15:28:43.016Z,2.70
2019-01-09T15:30:44.916Z,2.60
2019-01-09T15:32:46.584Z,2.70
2019-01-09T15:34:48.483Z,2.70
2019-01-09T15:36:50.119Z,2.70
2019-01-09T15:38:51.987Z,2.70
2019-01-09T15:40:53.623Z,2.70
2019-01-09T15:42:55.264Z,2.70
2019-01-09T15:44:57.159Z,2.70
2019-01-09T15:46:58.802Z,2.70
2019-01-09T15:49:00.680Z,2.70
2019-01-09T15:51:02.568Z,2.70
2019-01-09T15:53:04.214Z,2.70
2019-01-09T15:55:07.988Z,2.70
2019-01-09T15:57:09.625Z,2.70
2019-01-09T15:59:11.251Z,2.70
2019-01-09T16:01:13.249Z,2.70
2019-01-09T16:03:15.162Z,2.70
2019-01-09T16:05:16.839Z,2.60
2019-01-09T16:07:18.483Z,2.60
2019-01-09T16:09:20.115Z,2.60
2019-01-09T16:11:21.768Z,2.60
2019-01-09T16:13:23.648Z,2.60
2019-01-09T16:15:25.296Z,2.60
2019-01-09T16:17:26.937Z,2.60
2019-01-09T16:19:28.572Z,2.60
2019-01-09T16:21:30.216Z,2.60
2019-01-09T16:23:32.092Z,2.60
2019-01-09T16:25:33.735Z,2.60
2019-01-09T16:27:35.372Z,2.60
2019-01-09T16:29:37.008Z,2.60
2019-01-09T16:31:39.932Z,2.50
2019-01-09T16:33:41.665Z,2.50
2019-01-09T16:35:43.303Z,2.50
2019-01-09T16:37:44.939Z,2.50
2019-01-09T16:39:46.584Z,2.50
2019-01-09T16:41:48.248Z,2.50
2019-01-09T16:43:50.211Z,2.50
2019-01-09T16:45:51.862Z,2.50
2019-01-09T16:47:53.527Z,2.50
2019-01-09T16:49:55.176Z,2.50
2019-01-09T16:51:56.822Z,2.50
2019-01-09T16:53:58.716Z,2.50
2019-01-09T16:56:00.364Z,2.50
2019-01-09T16:58:02.004Z,2.50
2019-01-09T17:00:07.069Z,2.50
2019-01-09T17:02:08.715Z,2.50
2019-01-09T17:04:10.347Z,2.50
2019-01-09T17:06:11.991Z,2.50
2019-01-09T17:08:13.628Z,2.50
2019-01-09T17:10:15.269Z,2.60
2019-01-09T17:12:16.927Z,2.60
2019-01-09T17:14:18.568Z,2.60
2019-01-09T17:16:20.217Z,2.60
2019-01-09T17:18:21.860Z,2.60
2019-01-09T17:20:23.536Z,2.60
2019-01-09T17:22:25.419Z,2.60
2019-01-09T17:24:27.068Z,2.70
2019-01-09T17:26:28.807Z,2.70
2019-01-09T17:28:30.445Z,2.70
2019-01-09T17:30:32.074Z,2.70
2019-01-09T17:32:33.727Z,2.70
2019-01-09T17:34:35.373Z,2.70
2019-01-09T17:36:37.020Z,2.70
2019-01-09T17:38:38.725Z,2.70
2019-01-09T17:40:41.352Z,2.70
2019-01-09T17:42:43.143Z,2.70
2019-01-09T17:44:44.813Z,2.70
2019-01-09T17:46:55.063Z,2.70
2019-01-09T17:48:56.712Z,2.70
2019-01-09T17:50:58.359Z,2.70
2019-01-09T17:53:00.012Z,2.70
2019-01-09T17:55:01.904Z,2.70
2019-01-09T17:57:03.544Z,2.70
2019-01-09T17:59:05.185Z,2.80
2019-01-09T18:01:06.841Z,2.80
2019-01-09T18:03:08.645Z,2.80
2019-01-09T18:05:10.519Z,2.80
2019-01-09T18:07:12.168Z,2.80
2019-01-09T18:09:13.812Z,2.80
2019-01-09T18:11:15.459Z,2.80
2019-01-09T18:13:17.344Z,2.80
2019-01-09T18:15:20.012Z,2.80
2019-01-09T18:17:21.693Z,2.80
2019-01-09T18:19:23.632Z,2.80
2019-01-09T18:21:25.267Z,2.80
2019-01-09T18:23:26.911Z,2.80
2019-01-09T18:25:29.292Z,2.80
2019-01-09T18:27:30.931Z,2.80
2019-01-09T18:29:33.168Z,2.80
2019-01-09T18:32:16.108Z,2.80
2019-01-09T18:34:23.403Z,2.80
2019-01-09T18:36:51.723Z,2.80
2019-01-09T18:39:00.827Z,2.80
2019-01-09T18:41:22.711Z,2.90
2019-01-09T18:44:01.856Z,2.80
2019-01-09T18:46:26.420Z,2.80
2019-01-09T18:48:41.327Z,2.80
2019-01-09T18:51:10.007Z,2.80
2019-01-09T18:53:22.049Z,2.80
2019-01-09T18:55:23.880Z,2.80
2019-01-09T18:57:25.621Z,2.80
2019-01-09T18:59:27.267Z,2.80
2019-01-09T19:01:28.907Z,2.80
2019-01-09T19:03:30.791Z,2.80
2019-01-09T19:05:32.627Z,2.80
2019-01-09T19:07:34.275Z,2.80
2019-01-09T19:09:35.927Z,2.90
2019-01-09T19:11:37.563Z,2.90
2019-01-09T19:13:39.211Z,2.90
2019-01-09T19:15:41.194Z,2.90
2019-01-09T19:17:42.928Z,2.90
2019-01-09T19:19:44.577Z,2.90
2019-01-09T19:21:46.295Z,2.90
2019-01-09T19:23:47.959Z,2.90
2019-01-09T19:25:49.795Z,2.90
2019-01-09T19:27:51.439Z,2.90
2019-01-09T19:29:53.125Z,2.90
2019-01-09T19:31:54.768Z,2.90
2019-01-09T19:33:56.411Z,2.90
2019-01-09T19:35:58.252Z,2.90
2019-01-09T19:37:59.892Z,2.90
2019-01-09T19:40:01.794Z,2.90
2019-01-09T19:42:03.533Z,2.90
2019-01-09T19:44:05.196Z,2.90
2019-01-09T19:46:06.841Z,2.90
2019-01-09T19:48:08.731Z,2.90
2019-01-09T19:50:13.292Z,2.80
2019-01-09T19:52:14.948Z,2.80
2019-01-09T19:54:16.603Z,2.90
2019-01-09T19:56:18.499Z,2.90
2019-01-09T19:58:20.143Z,2.80
2019-01-09T20:00:22.791Z,2.80
2019-01-09T20:02:24.427Z,2.80
2019-01-09T20:04:26.076Z,2.80
2019-01-09T20:06:27.722Z,2.80
2019-01-09T20:08:29.489Z,2.80
2019-01-09T20:10:31.142Z,2.80
2019-01-09T20:12:32.776Z,2.80
2019-01-09T20:14:34.449Z,2.80
2019-01-09T20:16:36.109Z,2.80
2019-01-09T20:18:37.810Z,2.80
2019-01-09T20:20:39.456Z,2.80
2019-01-09T20:22:41.199Z,2.80
2019-01-09T20:24:42.849Z,2.80
2019-01-09T20:26:44.592Z,2.80
2019-01-09T20:28:46.231Z,2.80
2019-01-09T20:30:48.133Z,2.80
2019-01-09T20:32:49.935Z,2.80
2019-01-09T20:34:51.670Z,2.80
2019-01-09T20:36:53.356Z,2.80
2019-01-09T20:38:55.294Z,2.80
2019-01-09T20:40:56.923Z,2.80
2019-01-09T20:42:58.565Z,2.80
2019-01-09T20:45:00.301Z,2.80
2019-01-09T20:47:02.004Z,2.80
2019-01-09T20:49:03.808Z,2.80
2019-01-09T20:51:05.471Z,2.80
2019-01-09T20:53:07.164Z,2.80
2019-01-09T20:55:08.871Z,2.80
2019-01-09T20:57:11.739Z,2.80
2019-01-09T20:59:13.363Z,2.80
2019-01-09T21:01:15.176Z,2.80
2019-01-09T21:03:16.979Z,2.80
2019-01-09T21:05:21.670Z,2.80
2019-01-09T21:07:23.439Z,2.80
2019-01-09T21:09:25.202Z,2.80
2019-01-09T21:11:26.894Z,2.80
2019-01-09T21:13:28.599Z,2.80
2019-01-09T21:15:30.651Z,2.80
2019-01-09T21:17:32.326Z,2.80
2019-01-09T21:19:33.956Z,2.70
2019-01-09T21:21:35.604Z,2.70
2019-01-09T21:23:37.251Z,2.70
2019-01-09T21:25:38.893Z,2.70
2019-01-09T21:27:42.197Z,2.70
2019-01-09T21:29:44.116Z,2.70
2019-01-09T21:31:45.807Z,2.70
2019-01-09T21:33:47.447Z,2.70
2019-01-09T21:35:49.095Z,2.70
2019-01-09T21:37:50.741Z,2.70
2019-01-09T21:39:52.375Z,2.70
2019-01-09T21:41:54.124Z,2.70
2019-01-09T21:43:55.764Z,2.70
2019-01-09T21:45:57.400Z,2.70
2019-01-09T21:47:59.044Z,2.70
2019-01-09T21:50:00.924Z,2.70
2019-01-09T21:52:02.812Z,2.70
2019-01-09T21:54:04.485Z,2.70
2019-01-09T21:56:06.176Z,2.70
2019-01-09T21:58:07.915Z,2.70
2019-01-09T22:00:13.115Z,2.70
2019-01-09T22:02:15.237Z,2.70
2019-01-09T22:04:16.867Z,2.60
2019-01-09T22:06:18.508Z,2.60
2019-01-09T22:08:20.251Z,2.60
2019-01-09T22:10:24.519Z,2.60
2019-01-09T22:12:26.230Z,2.60
2019-01-09T22:14:27.868Z,2.60
2019-01-09T22:16:29.735Z,2.60
2019-01-09T22:18:31.410Z,2.60
2019-01-09T22:20:33.057Z,2.60
2019-01-09T22:22:34.984Z,2.60
2019-01-09T22:24:36.619Z,2.60
2019-01-09T22:26:38.496Z,2.60
2019-01-09T22:28:40.135Z,2.60
2019-01-09T22:30:41.771Z,2.60
2019-01-09T22:32:43.439Z,2.50
2019-01-09T22:34:45.075Z,2.50
2019-01-09T22:36:46.719Z,2.50
2019-01-09T22:38:48.372Z,2.50
2019-01-09T22:40:50.251Z,2.50
2019-01-09T22:42:52.147Z,2.50
2019-01-09T22:44:53.783Z,2.40
2019-01-09T22:46:55.439Z,2.40
2019-01-09T22:48:57.128Z,2.40
2019-01-09T22:50:58.768Z,2.40
2019-01-09T22:53:00.415Z,2.40
2019-01-09T22:55:02.077Z,2.40
2019-01-09T22:57:03.984Z,2.40
2019-01-09T22:59:05.686Z,2.40
2019-01-09T23:01:18.775Z,2.40
2019-01-09T23:03:20.488Z,2.40
2019-01-09T23:05:22.135Z,2.40
2019-01-09T23:07:23.774Z,2.40
2019-01-09T23:09:25.419Z,2.40
2019-01-09T23:11:27.055Z,2.40
2019-01-09T23:13:28.944Z,2.40
2019-01-09T23:15:30.723Z,2.40
2019-01-09T23:17:32.364Z,2.40
2019-01-09T23:19:34.012Z,2.40
2019-01-09T23:21:35.888Z,2.40
2019-01-09T23:23:37.701Z,2.40
2019-01-09T23:25:39.723Z,2.40
2019-01-09T23:27:41.856Z,2.40
2019-01-09T23:29:43.500Z,2.40
2019-01-09T23:31:45.143Z,2.40
2019-01-09T23:33:46.783Z,2.40
2019-01-09T23:35:48.424Z,2.40
2019-01-09T23:37:50.067Z,2.40
2019-01-09T23:39:51.955Z,2.40
2019-01-09T23:41:53.588Z,2.40
2019-01-09T23:43:55.236Z,2.40
2019-01-09T23:45:56.883Z,2.40
2019-01-09T23:47:58.517Z,2.40
2019-01-09T23:50:00.162Z,2.40
2019-01-09T23:52:01.799Z,2.40
2019-01-09T23:54:03.590Z,2.40
2019-01-09T23:56:05.231Z,2.40
2019-01-09T23:58:06.875Z,2.40
